sensor_id;sensor_type;location;lat;lon;timestamp;temperature;humidity
70826;SHT31;58446;41.490;22.098;2023-12-22T00:01:05;2.51;77.11
70826;SHT31;58446;41.490;22.098;2023-12-22T00:03:31;2.57;76.14
70826;SHT31;58446;41.490;22.098;2023-12-22T00:05:57;2.98;75.87
70826;SHT31;58446;41.490;22.098;2023-12-22T00:08:22;3.04;75.28
70826;SHT31;58446;41.490;22.098;2023-12-22T00:10:49;3.25;75.01
70826;SHT31;58446;41.490;22.098;2023-12-22T00:13:15;3.05;73.66
70826;SHT31;58446;41.490;22.098;2023-12-22T00:15:41;3.13;75.18
70826;SHT31;58446;41.490;22.098;2023-12-22T00:18:10;3.16;74.09
70826;SHT31;58446;41.490;22.098;2023-12-22T00:20:35;2.29;75.14
70826;SHT31;58446;41.490;22.098;2023-12-22T00:23:01;2.36;76.65
70826;SHT31;58446;41.490;22.098;2023-12-22T00:25:27;2.67;76.14
70826;SHT31;58446;41.490;22.098;2023-12-22T00:27:52;3.13;75.51
70826;SHT31;58446;41.490;22.098;2023-12-22T00:30:18;3.12;75.33
70826;SHT31;58446;41.490;22.098;2023-12-22T00:32:44;3.29;74.81
70826;SHT31;58446;41.490;22.098;2023-12-22T00:35:09;3.25;74.69
70826;SHT31;58446;41.490;22.098;2023-12-22T00:37:35;3.22;73.75
70826;SHT31;58446;41.490;22.098;2023-12-22T00:40:02;2.91;73.96
70826;SHT31;58446;41.490;22.098;2023-12-22T00:42:30;2.85;75.63
70826;SHT31;58446;41.490;22.098;2023-12-22T00:44:56;2.76;74.51
70826;SHT31;58446;41.490;22.098;2023-12-22T00:47:21;2.34;75.99
70826;SHT31;58446;41.490;22.098;2023-12-22T00:49:47;2.76;76.54
70826;SHT31;58446;41.490;22.098;2023-12-22T00:52:13;2.92;76.19
70826;SHT31;58446;41.490;22.098;2023-12-22T00:54:38;2.99;75.94
70826;SHT31;58446;41.490;22.098;2023-12-22T00:57:04;3.09;75.07
70826;SHT31;58446;41.490;22.098;2023-12-22T00:59:30;3.08;74.98
70826;SHT31;58446;41.490;22.098;2023-12-22T01:01:55;3.07;75.53
70826;SHT31;58446;41.490;22.098;2023-12-22T01:04:21;3.07;75.41
70826;SHT31;58446;41.490;22.098;2023-12-22T01:06:47;3.29;74.55
70826;SHT31;58446;41.490;22.098;2023-12-22T01:09:12;3.28;74.30
70826;SHT31;58446;41.490;22.098;2023-12-22T01:11:40;3.12;74.78
70826;SHT31;58446;41.490;22.098;2023-12-22T01:14:06;2.61;73.74
70826;SHT31;58446;41.490;22.098;2023-12-22T01:16:32;2.40;76.80
70826;SHT31;58446;41.490;22.098;2023-12-22T01:18:58;2.49;74.88
70826;SHT31;58446;41.490;22.098;2023-12-22T01:21:24;2.47;76.33
70826;SHT31;58446;41.490;22.098;2023-12-22T01:23:49;2.23;76.15
70826;SHT31;58446;41.490;22.098;2023-12-22T01:26:15;2.54;77.41
70826;SHT31;58446;41.490;22.098;2023-12-22T01:28:41;3.04;75.74
70826;SHT31;58446;41.490;22.098;2023-12-22T01:31:06;2.77;75.37
70826;SHT31;58446;41.490;22.098;2023-12-22T01:33:32;3.07;75.60
70826;SHT31;58446;41.490;22.098;2023-12-22T01:35:58;3.18;75.00
70826;SHT31;58446;41.490;22.098;2023-12-22T01:38:23;2.99;75.02
70826;SHT31;58446;41.490;22.098;2023-12-22T01:40:49;3.13;75.41
70826;SHT31;58446;41.490;22.098;2023-12-22T01:43:14;2.65;74.63
70826;SHT31;58446;41.490;22.098;2023-12-22T01:45:42;3.02;75.85
70826;SHT31;58446;41.490;22.098;2023-12-22T01:48:10;3.23;75.20
70826;SHT31;58446;41.490;22.098;2023-12-22T01:50:36;3.16;74.75
70826;SHT31;58446;41.490;22.098;2023-12-22T01:53:02;3.25;74.99
70826;SHT31;58446;41.490;22.098;2023-12-22T01:55:28;3.32;74.69
70826;SHT31;58446;41.490;22.098;2023-12-22T01:57:55;2.50;75.34
70826;SHT31;58446;41.490;22.098;2023-12-22T02:00:21;2.29;76.21
70826;SHT31;58446;41.490;22.098;2023-12-22T02:02:47;2.44;77.31
70826;SHT31;58446;41.490;22.098;2023-12-22T02:05:13;2.92;76.68
70826;SHT31;58446;41.490;22.098;2023-12-22T02:07:41;2.83;76.34
70826;SHT31;58446;41.490;22.098;2023-12-22T02:10:08;2.88;76.70
70826;SHT31;58446;41.490;22.098;2023-12-22T02:12:34;2.92;75.85
70826;SHT31;58446;41.490;22.098;2023-12-22T02:15:00;2.84;76.27
70826;SHT31;58446;41.490;22.098;2023-12-22T02:17:31;3.22;76.01
70826;SHT31;58446;41.490;22.098;2023-12-22T02:19:58;3.30;75.66
70826;SHT31;58446;41.490;22.098;2023-12-22T02:22:24;3.15;75.65
70826;SHT31;58446;41.490;22.098;2023-12-22T02:24:50;3.26;75.48
70826;SHT31;58446;41.490;22.098;2023-12-22T02:27:49;3.08;75.88
70826;SHT31;58446;41.490;22.098;2023-12-22T02:30:25;3.32;75.50
70826;SHT31;58446;41.490;22.098;2023-12-22T02:32:54;3.15;75.39
70826;SHT31;58446;41.490;22.098;2023-12-22T02:35:24;2.70;76.30
70826;SHT31;58446;41.490;22.098;2023-12-22T02:37:51;2.64;76.79
70826;SHT31;58446;41.490;22.098;2023-12-22T02:40:17;2.47;77.31
70826;SHT31;58446;41.490;22.098;2023-12-22T02:42:43;2.83;77.56
70826;SHT31;58446;41.490;22.098;2023-12-22T02:45:15;3.01;77.24
70826;SHT31;58446;41.490;22.098;2023-12-22T02:47:41;3.02;77.16
70826;SHT31;58446;41.490;22.098;2023-12-22T02:50:07;3.30;76.59
70826;SHT31;58446;41.490;22.098;2023-12-22T02:52:33;3.39;76.06
70826;SHT31;58446;41.490;22.098;2023-12-22T02:54:59;3.30;76.04
70826;SHT31;58446;41.490;22.098;2023-12-22T02:57:24;3.13;76.05
70826;SHT31;58446;41.490;22.098;2023-12-22T02:59:50;3.20;76.90
70826;SHT31;58446;41.490;22.098;2023-12-22T03:02:15;3.28;76.59
70826;SHT31;58446;41.490;22.098;2023-12-22T03:04:41;3.30;76.28
70826;SHT31;58446;41.490;22.098;2023-12-22T03:07:07;3.23;76.35
70826;SHT31;58446;41.490;22.098;2023-12-22T03:09:32;3.08;76.77
70826;SHT31;58446;41.490;22.098;2023-12-22T03:12:00;3.09;77.03
70826;SHT31;58446;41.490;22.098;2023-12-22T03:14:30;3.08;77.00
70826;SHT31;58446;41.490;22.098;2023-12-22T03:16:59;3.08;77.42
70826;SHT31;58446;41.490;22.098;2023-12-22T03:19:25;3.15;77.10
70826;SHT31;58446;41.490;22.098;2023-12-22T03:21:50;3.25;76.77
70826;SHT31;58446;41.490;22.098;2023-12-22T03:24:16;3.32;76.62
70826;SHT31;58446;41.490;22.098;2023-12-22T03:26:45;3.25;76.59
70826;SHT31;58446;41.490;22.098;2023-12-22T03:29:11;2.56;78.14
70826;SHT31;58446;41.490;22.098;2023-12-22T03:31:37;2.34;79.19
70826;SHT31;58446;41.490;22.098;2023-12-22T03:34:02;2.32;79.96
70826;SHT31;58446;41.490;22.098;2023-12-22T03:36:28;2.71;79.61
70826;SHT31;58446;41.490;22.098;2023-12-22T03:38:54;2.88;78.63
70826;SHT31;58446;41.490;22.098;2023-12-22T03:41:19;3.13;78.19
70826;SHT31;58446;41.490;22.098;2023-12-22T03:43:45;3.20;77.92
70826;SHT31;58446;41.490;22.098;2023-12-22T03:46:11;3.33;77.25
70826;SHT31;58446;41.490;22.098;2023-12-22T03:48:36;3.36;76.99
70826;SHT31;58446;41.490;22.098;2023-12-22T03:51:02;3.38;77.23
70826;SHT31;58446;41.490;22.098;2023-12-22T03:53:28;3.32;77.43
70826;SHT31;58446;41.490;22.098;2023-12-22T03:55:54;3.18;77.82
70826;SHT31;58446;41.490;22.098;2023-12-22T03:58:20;3.28;77.82
70826;SHT31;58446;41.490;22.098;2023-12-22T04:00:46;3.39;77.40
70826;SHT31;58446;41.490;22.098;2023-12-22T04:03:11;3.22;77.65
70826;SHT31;58446;41.490;22.098;2023-12-22T04:05:37;3.36;77.54
70826;SHT31;58446;41.490;22.098;2023-12-22T04:08:03;2.85;78.60
70826;SHT31;58446;41.490;22.098;2023-12-22T04:10:29;2.76;79.13
70826;SHT31;58446;41.490;22.098;2023-12-22T04:12:54;2.94;78.86
70826;SHT31;58446;41.490;22.098;2023-12-22T04:15:20;3.19;78.51
70826;SHT31;58446;41.490;22.098;2023-12-22T04:17:45;3.43;77.60
70826;SHT31;58446;41.490;22.098;2023-12-22T04:20:11;3.39;77.78
70826;SHT31;58446;41.490;22.098;2023-12-22T04:22:38;3.32;77.97
70826;SHT31;58446;41.490;22.098;2023-12-22T04:25:04;3.52;77.16
70826;SHT31;58446;41.490;22.098;2023-12-22T04:27:33;3.52;76.92
70826;SHT31;58446;41.490;22.098;2023-12-22T04:29:59;3.55;77.03
70826;SHT31;58446;41.490;22.098;2023-12-22T04:32:24;3.59;76.95
70826;SHT31;58446;41.490;22.098;2023-12-22T04:34:50;3.62;76.97
70826;SHT31;58446;41.490;22.098;2023-12-22T04:37:16;3.58;76.99
70826;SHT31;58446;41.490;22.098;2023-12-22T04:39:41;3.40;77.56
70826;SHT31;58446;41.490;22.098;2023-12-22T04:42:07;3.49;77.45
70826;SHT31;58446;41.490;22.098;2023-12-22T04:44:32;3.05;78.16
70826;SHT31;58446;41.490;22.098;2023-12-22T04:46:58;3.15;78.32
70826;SHT31;58446;41.490;22.098;2023-12-22T04:49:24;3.26;78.05
70826;SHT31;58446;41.490;22.098;2023-12-22T04:51:49;3.35;77.88
70826;SHT31;58446;41.490;22.098;2023-12-22T04:54:15;3.30;78.10
70826;SHT31;58446;41.490;22.098;2023-12-22T04:56:40;3.40;77.85
70826;SHT31;58446;41.490;22.098;2023-12-22T04:59:06;3.38;77.97
70826;SHT31;58446;41.490;22.098;2023-12-22T05:01:32;3.33;78.10
70826;SHT31;58446;41.490;22.098;2023-12-22T05:03:57;3.29;78.32
70826;SHT31;58446;41.490;22.098;2023-12-22T05:06:23;3.40;78.24
70826;SHT31;58446;41.490;22.098;2023-12-22T05:08:48;3.42;77.97
70826;SHT31;58446;41.490;22.098;2023-12-22T05:11:14;3.48;77.86
70826;SHT31;58446;41.490;22.098;2023-12-22T05:13:39;3.33;77.97
70826;SHT31;58446;41.490;22.098;2023-12-22T05:16:07;3.43;78.04
70826;SHT31;58446;41.490;22.098;2023-12-22T05:18:33;3.29;78.38
70826;SHT31;58446;41.490;22.098;2023-12-22T05:20:58;3.32;78.50
70826;SHT31;58446;41.490;22.098;2023-12-22T05:23:24;3.18;78.74
70826;SHT31;58446;41.490;22.098;2023-12-22T05:25:49;3.30;78.25
70826;SHT31;58446;41.490;22.098;2023-12-22T05:28:15;3.32;78.55
70826;SHT31;58446;41.490;22.098;2023-12-22T05:30:41;3.43;78.20
70826;SHT31;58446;41.490;22.098;2023-12-22T05:33:06;3.29;78.37
70826;SHT31;58446;41.490;22.098;2023-12-22T05:35:32;3.29;78.59
70826;SHT31;58446;41.490;22.098;2023-12-22T05:37:57;3.05;78.72
70826;SHT31;58446;41.490;22.098;2023-12-22T05:40:23;2.80;79.76
70826;SHT31;58446;41.490;22.098;2023-12-22T05:42:49;3.20;79.18
70826;SHT31;58446;41.490;22.098;2023-12-22T05:45:14;3.29;78.79
70826;SHT31;58446;41.490;22.098;2023-12-22T05:47:40;3.46;78.27
70826;SHT31;58446;41.490;22.098;2023-12-22T05:50:07;3.46;78.30
70826;SHT31;58446;41.490;22.098;2023-12-22T05:52:33;3.26;78.27
70826;SHT31;58446;41.490;22.098;2023-12-22T05:54:58;3.28;78.37
70826;SHT31;58446;41.490;22.098;2023-12-22T05:57:27;2.98;79.33
70826;SHT31;58446;41.490;22.098;2023-12-22T05:59:55;3.28;79.14
70826;SHT31;58446;41.490;22.098;2023-12-22T06:02:21;3.20;78.82
70826;SHT31;58446;41.490;22.098;2023-12-22T06:04:46;3.18;79.08
70826;SHT31;58446;41.490;22.098;2023-12-22T06:07:12;3.30;79.03
70826;SHT31;58446;41.490;22.098;2023-12-22T06:09:38;3.48;78.35
70826;SHT31;58446;41.490;22.098;2023-12-22T06:12:05;3.16;79.28
70826;SHT31;58446;41.490;22.098;2023-12-22T06:14:30;3.40;78.58
70826;SHT31;58446;41.490;22.098;2023-12-22T06:16:57;3.38;78.45
70826;SHT31;58446;41.490;22.098;2023-12-22T06:19:23;3.52;78.39
70826;SHT31;58446;41.490;22.098;2023-12-22T06:21:53;3.35;78.62
70826;SHT31;58446;41.490;22.098;2023-12-22T06:24:19;2.99;79.41
70826;SHT31;58446;41.490;22.098;2023-12-22T06:26:45;2.85;80.02
70826;SHT31;58446;41.490;22.098;2023-12-22T06:29:10;2.77;80.16
70826;SHT31;58446;41.490;22.098;2023-12-22T06:31:36;2.65;81.08
70826;SHT31;58446;41.490;22.098;2023-12-22T06:34:01;3.12;80.34
70826;SHT31;58446;41.490;22.098;2023-12-22T06:36:28;3.20;79.81
70826;SHT31;58446;41.490;22.098;2023-12-22T06:38:54;3.35;79.43
70826;SHT31;58446;41.490;22.098;2023-12-22T06:41:30;3.55;78.64
70826;SHT31;58446;41.490;22.098;2023-12-22T06:43:57;3.71;78.06
70826;SHT31;58446;41.490;22.098;2023-12-22T06:46:25;3.74;78.01
70826;SHT31;58446;41.490;22.098;2023-12-22T06:48:51;3.70;78.05
70826;SHT31;58446;41.490;22.098;2023-12-22T06:51:18;3.76;78.03
70826;SHT31;58446;41.490;22.098;2023-12-22T06:53:45;3.74;78.03
70826;SHT31;58446;41.490;22.098;2023-12-22T06:56:15;3.69;78.28
70826;SHT31;58446;41.490;22.098;2023-12-22T06:58:41;3.70;78.27
70826;SHT31;58446;41.490;22.098;2023-12-22T07:01:07;3.77;78.16
70826;SHT31;58446;41.490;22.098;2023-12-22T07:03:32;3.50;78.40
70826;SHT31;58446;41.490;22.098;2023-12-22T07:05:58;3.69;78.51
70826;SHT31;58446;41.490;22.098;2023-12-22T07:08:23;3.39;79.33
70826;SHT31;58446;41.490;22.098;2023-12-22T07:10:49;3.58;79.11
70826;SHT31;58446;41.490;22.098;2023-12-22T07:13:14;3.67;78.58
70826;SHT31;58446;41.490;22.098;2023-12-22T07:15:40;3.70;78.45
70826;SHT31;58446;41.490;22.098;2023-12-22T07:18:06;3.74;78.12
70826;SHT31;58446;41.490;22.098;2023-12-22T07:20:31;3.63;78.49
70826;SHT31;58446;41.490;22.098;2023-12-22T07:22:57;3.66;78.61
70826;SHT31;58446;41.490;22.098;2023-12-22T07:25:22;3.77;78.24
70826;SHT31;58446;41.490;22.098;2023-12-22T07:27:48;3.59;78.46
70826;SHT31;58446;41.490;22.098;2023-12-22T07:30:15;3.22;80.10
70826;SHT31;58446;41.490;22.098;2023-12-22T07:32:43;3.40;79.54
70826;SHT31;58446;41.490;22.098;2023-12-22T07:35:09;3.69;78.89
70826;SHT31;58446;41.490;22.098;2023-12-22T07:37:36;3.42;79.08
70826;SHT31;58446;41.490;22.098;2023-12-22T07:40:01;3.33;79.62
70826;SHT31;58446;41.490;22.098;2023-12-22T07:42:28;3.67;78.86
70826;SHT31;58446;41.490;22.098;2023-12-22T07:44:53;3.81;78.37
70826;SHT31;58446;41.490;22.098;2023-12-22T07:47:19;3.89;78.18
70826;SHT31;58446;41.490;22.098;2023-12-22T07:49:45;3.90;78.28
70826;SHT31;58446;41.490;22.098;2023-12-22T07:52:10;3.90;78.15
70826;SHT31;58446;41.490;22.098;2023-12-22T07:54:36;3.86;78.31
70826;SHT31;58446;41.490;22.098;2023-12-22T07:57:02;3.70;78.72
70826;SHT31;58446;41.490;22.098;2023-12-22T07:59:27;3.77;78.95
70826;SHT31;58446;41.490;22.098;2023-12-22T08:01:53;3.77;78.74
70826;SHT31;58446;41.490;22.098;2023-12-22T08:04:18;3.89;78.53
70826;SHT31;58446;41.490;22.098;2023-12-22T08:06:44;3.90;78.29
70826;SHT31;58446;41.490;22.098;2023-12-22T08:09:10;3.97;78.19
70826;SHT31;58446;41.490;22.098;2023-12-22T08:11:35;4.02;77.98
70826;SHT31;58446;41.490;22.098;2023-12-22T08:14:01;3.87;78.42
70826;SHT31;58446;41.490;22.098;2023-12-22T08:16:28;3.94;78.13
70826;SHT31;58446;41.490;22.098;2023-12-22T08:18:54;3.87;78.32
70826;SHT31;58446;41.490;22.098;2023-12-22T08:21:20;3.89;78.28
70826;SHT31;58446;41.490;22.098;2023-12-22T08:23:45;3.94;78.32
70826;SHT31;58446;41.490;22.098;2023-12-22T08:26:11;3.94;78.41
70826;SHT31;58446;41.490;22.098;2023-12-22T08:28:37;3.95;78.29
70826;SHT31;58446;41.490;22.098;2023-12-22T08:31:03;3.90;78.56
70826;SHT31;58446;41.490;22.098;2023-12-22T08:33:29;3.95;78.34
70826;SHT31;58446;41.490;22.098;2023-12-22T08:35:56;3.87;78.70
70826;SHT31;58446;41.490;22.098;2023-12-22T08:38:22;3.84;78.85
70826;SHT31;58446;41.490;22.098;2023-12-22T08:40:48;3.79;79.85
70826;SHT31;58446;41.490;22.098;2023-12-22T08:43:14;3.86;79.43
70826;SHT31;58446;41.490;22.098;2023-12-22T08:45:40;3.98;79.07
70826;SHT31;58446;41.490;22.098;2023-12-22T08:48:06;4.24;78.34
70826;SHT31;58446;41.490;22.098;2023-12-22T08:50:34;4.07;78.01
70826;SHT31;58446;41.490;22.098;2023-12-22T08:52:59;4.12;78.21
70826;SHT31;58446;41.490;22.098;2023-12-22T08:55:25;4.46;77.71
70826;SHT31;58446;41.490;22.098;2023-12-22T08:57:51;5.01;76.47
70826;SHT31;58446;41.490;22.098;2023-12-22T09:00:16;5.28;74.58
70826;SHT31;58446;41.490;22.098;2023-12-22T09:02:42;5.23;75.81
70826;SHT31;58446;41.490;22.098;2023-12-22T09:05:08;4.96;75.89
70826;SHT31;58446;41.490;22.098;2023-12-22T09:07:33;4.96;76.04
70826;SHT31;58446;41.490;22.098;2023-12-22T09:09:59;4.91;76.82
70826;SHT31;58446;41.490;22.098;2023-12-22T09:12:25;4.77;76.46
70826;SHT31;58446;41.490;22.098;2023-12-22T09:14:51;4.73;76.89
70826;SHT31;58446;41.490;22.098;2023-12-22T09:17:16;4.48;77.84
70826;SHT31;58446;41.490;22.098;2023-12-22T09:19:42;4.53;78.18
70826;SHT31;58446;41.490;22.098;2023-12-22T09:22:08;4.56;77.68
70826;SHT31;58446;41.490;22.098;2023-12-22T09:24:34;4.93;76.95
70826;SHT31;58446;41.490;22.098;2023-12-22T09:26:59;4.94;76.18
70826;SHT31;58446;41.490;22.098;2023-12-22T09:29:30;4.94;77.47
70826;SHT31;58446;41.490;22.098;2023-12-22T09:32:01;4.89;76.99
70826;SHT31;58446;41.490;22.098;2023-12-22T09:34:26;5.21;76.15
70826;SHT31;58446;41.490;22.098;2023-12-22T09:36:56;5.61;75.51
70826;SHT31;58446;41.490;22.098;2023-12-22T09:39:21;6.05;74.25
70826;SHT31;58446;41.490;22.098;2023-12-22T09:41:48;5.82;73.25
70826;SHT31;58446;41.490;22.098;2023-12-22T09:44:19;5.56;74.71
70826;SHT31;58446;41.490;22.098;2023-12-22T09:46:48;5.82;75.19
70826;SHT31;58446;41.490;22.098;2023-12-22T09:49:20;6.02;73.95
70826;SHT31;58446;41.490;22.098;2023-12-22T09:51:49;6.03;73.67
70826;SHT31;58446;41.490;22.098;2023-12-22T09:54:15;5.96;73.97
70826;SHT31;58446;41.490;22.098;2023-12-22T09:56:41;6.06;74.61
70826;SHT31;58446;41.490;22.098;2023-12-22T09:59:12;6.17;73.19
70826;SHT31;58446;41.490;22.098;2023-12-22T10:01:44;6.06;74.06
70826;SHT31;58446;41.490;22.098;2023-12-22T10:04:14;6.14;74.65
70826;SHT31;58446;41.490;22.098;2023-12-22T10:06:41;6.33;73.43
70826;SHT31;58446;41.490;22.098;2023-12-22T10:09:07;5.92;74.34
70826;SHT31;58446;41.490;22.098;2023-12-22T10:11:35;5.81;74.88
70826;SHT31;58446;41.490;22.098;2023-12-22T10:14:04;5.73;75.06
70826;SHT31;58446;41.490;22.098;2023-12-22T10:16:30;5.69;76.09
70826;SHT31;58446;41.490;22.098;2023-12-22T10:18:56;5.88;76.19
70826;SHT31;58446;41.490;22.098;2023-12-22T10:21:23;6.23;74.43
70826;SHT31;58446;41.490;22.098;2023-12-22T10:23:49;6.45;73.40
70826;SHT31;58446;41.490;22.098;2023-12-22T10:26:14;6.68;72.57
70826;SHT31;58446;41.490;22.098;2023-12-22T10:28:42;6.84;72.41
70826;SHT31;58446;41.490;22.098;2023-12-22T10:31:08;7.13;72.02
70826;SHT31;58446;41.490;22.098;2023-12-22T10:33:34;7.44;72.23
70826;SHT31;58446;41.490;22.098;2023-12-22T10:36:00;7.80;71.08
70826;SHT31;58446;41.490;22.098;2023-12-22T10:38:32;7.91;69.90
70826;SHT31;58446;41.490;22.098;2023-12-22T10:40:59;7.57;69.69
70826;SHT31;58446;41.490;22.098;2023-12-22T10:43:25;7.83;70.80
70826;SHT31;58446;41.490;22.098;2023-12-22T10:45:52;7.88;69.43
70826;SHT31;58446;41.490;22.098;2023-12-22T10:48:18;8.21;69.92
70826;SHT31;58446;41.490;22.098;2023-12-22T10:50:44;8.38;68.40
70826;SHT31;58446;41.490;22.098;2023-12-22T10:53:11;8.42;67.90
70826;SHT31;58446;41.490;22.098;2023-12-22T10:55:37;8.38;67.89
70826;SHT31;58446;41.490;22.098;2023-12-22T10:58:05;8.04;69.24
70826;SHT31;58446;41.490;22.098;2023-12-22T11:00:38;7.93;69.59
70826;SHT31;58446;41.490;22.098;2023-12-22T11:03:08;8.01;69.56
70826;SHT31;58446;41.490;22.098;2023-12-22T11:05:37;8.16;69.44
70826;SHT31;58446;41.490;22.098;2023-12-22T11:08:06;8.14;68.62
70826;SHT31;58446;41.490;22.098;2023-12-22T11:10:35;8.14;69.80
70826;SHT31;58446;41.490;22.098;2023-12-22T11:13:04;8.26;68.35
70826;SHT31;58446;41.490;22.098;2023-12-22T11:15:30;8.42;69.27
70826;SHT31;58446;41.490;22.098;2023-12-22T11:17:57;8.62;68.07
70826;SHT31;58446;41.490;22.098;2023-12-22T11:20:24;8.72;66.94
70826;SHT31;58446;41.490;22.098;2023-12-22T11:22:51;8.83;66.97
70826;SHT31;58446;41.490;22.098;2023-12-22T11:25:18;8.84;66.61
70826;SHT31;58446;41.490;22.098;2023-12-22T11:27:46;8.81;67.28
70826;SHT31;58446;41.490;22.098;2023-12-22T11:30:14;8.81;67.51
70826;SHT31;58446;41.490;22.098;2023-12-22T11:32:41;8.80;67.64
70826;SHT31;58446;41.490;22.098;2023-12-22T11:35:07;8.67;67.66
70826;SHT31;58446;41.490;22.098;2023-12-22T11:37:35;8.45;68.32
70826;SHT31;58446;41.490;22.098;2023-12-22T11:40:01;8.14;69.26
70826;SHT31;58446;41.490;22.098;2023-12-22T11:42:33;7.84;70.46
70826;SHT31;58446;41.490;22.098;2023-12-22T11:45:02;7.90;70.10
70826;SHT31;58446;41.490;22.098;2023-12-22T11:47:28;7.77;70.74
70826;SHT31;58446;41.490;22.098;2023-12-22T11:49:55;7.73;70.97
70826;SHT31;58446;41.490;22.098;2023-12-22T11:52:30;7.59;71.47
70826;SHT31;58446;41.490;22.098;2023-12-22T11:54:56;7.53;71.73
70826;SHT31;58446;41.490;22.098;2023-12-22T11:59:58;7.46;71.97
70826;SHT31;58446;41.490;22.098;2023-12-22T12:02:26;7.42;72.12
70826;SHT31;58446;41.490;22.098;2023-12-22T12:04:53;7.32;72.23
70826;SHT31;58446;41.490;22.098;2023-12-22T12:07:44;7.26;72.47
70826;SHT31;58446;41.490;22.098;2023-12-22T12:10:36;7.23;72.63
70826;SHT31;58446;41.490;22.098;2023-12-22T12:13:06;7.29;73.37
70826;SHT31;58446;41.490;22.098;2023-12-22T12:15:33;7.29;72.87
70826;SHT31;58446;41.490;22.098;2023-12-22T12:18:00;7.27;73.77
70826;SHT31;58446;41.490;22.098;2023-12-22T12:20:26;7.27;73.36
70826;SHT31;58446;41.490;22.098;2023-12-22T12:22:53;7.26;73.41
70826;SHT31;58446;41.490;22.098;2023-12-22T12:25:22;7.25;73.35
70826;SHT31;58446;41.490;22.098;2023-12-22T12:28:00;7.12;73.83
70826;SHT31;58446;41.490;22.098;2023-12-22T12:30:26;7.05;74.11
70826;SHT31;58446;41.490;22.098;2023-12-22T12:32:51;7.03;74.48
70826;SHT31;58446;41.490;22.098;2023-12-22T12:35:18;6.98;74.97
70826;SHT31;58446;41.490;22.098;2023-12-22T12:37:44;6.85;74.99
70826;SHT31;58446;41.490;22.098;2023-12-22T12:40:16;6.71;75.76
70826;SHT31;58446;41.490;22.098;2023-12-22T12:42:44;6.72;76.33
70826;SHT31;58446;41.490;22.098;2023-12-22T12:45:10;6.75;76.40
70826;SHT31;58446;41.490;22.098;2023-12-22T12:47:35;6.77;77.27
70826;SHT31;58446;41.490;22.098;2023-12-22T12:50:02;6.84;77.24
70826;SHT31;58446;41.490;22.098;2023-12-22T12:52:28;6.87;76.36
70826;SHT31;58446;41.490;22.098;2023-12-22T12:54:54;6.81;77.01
70826;SHT31;58446;41.490;22.098;2023-12-22T12:57:21;6.84;78.61
70826;SHT31;58446;41.490;22.098;2023-12-22T12:59:47;6.85;77.54
70826;SHT31;58446;41.490;22.098;2023-12-22T13:02:15;6.85;79.77
70826;SHT31;58446;41.490;22.098;2023-12-22T13:04:40;6.82;80.71
70826;SHT31;58446;41.490;22.098;2023-12-22T13:07:06;6.77;82.89
70826;SHT31;58446;41.490;22.098;2023-12-22T13:09:33;6.75;82.86
70826;SHT31;58446;41.490;22.098;2023-12-22T13:12:02;6.74;83.54
70826;SHT31;58446;41.490;22.098;2023-12-22T13:14:28;6.68;83.93
70826;SHT31;58446;41.490;22.098;2023-12-22T13:16:56;6.63;84.02
70826;SHT31;58446;41.490;22.098;2023-12-22T13:19:25;6.64;84.50
70826;SHT31;58446;41.490;22.098;2023-12-22T13:21:53;6.63;84.93
70826;SHT31;58446;41.490;22.098;2023-12-22T13:24:18;6.61;83.76
70826;SHT31;58446;41.490;22.098;2023-12-22T13:26:45;6.63;84.80
70826;SHT31;58446;41.490;22.098;2023-12-22T13:29:12;6.63;85.43
70826;SHT31;58446;41.490;22.098;2023-12-22T13:31:39;6.57;84.07
70826;SHT31;58446;41.490;22.098;2023-12-22T13:34:12;6.47;84.50
70826;SHT31;58446;41.490;22.098;2023-12-22T13:36:39;6.43;84.65
70826;SHT31;58446;41.490;22.098;2023-12-22T13:39:06;6.43;84.94
70826;SHT31;58446;41.490;22.098;2023-12-22T13:41:38;6.38;84.90
70826;SHT31;58446;41.490;22.098;2023-12-22T13:44:06;6.41;85.48
70826;SHT31;58446;41.490;22.098;2023-12-22T13:46:32;6.40;85.39
70826;SHT31;58446;41.490;22.098;2023-12-22T13:49:01;6.38;85.51
70826;SHT31;58446;41.490;22.098;2023-12-22T13:51:26;6.30;85.35
70826;SHT31;58446;41.490;22.098;2023-12-22T13:53:52;6.27;85.73
70826;SHT31;58446;41.490;22.098;2023-12-22T13:56:18;6.24;85.28
70826;SHT31;58446;41.490;22.098;2023-12-22T13:58:44;6.23;84.41
70826;SHT31;58446;41.490;22.098;2023-12-22T14:01:15;6.22;84.68
70826;SHT31;58446;41.490;22.098;2023-12-22T14:03:42;6.22;84.61
70826;SHT31;58446;41.490;22.098;2023-12-22T14:06:07;6.24;84.15
70826;SHT31;58446;41.490;22.098;2023-12-22T14:08:35;6.20;84.23
70826;SHT31;58446;41.490;22.098;2023-12-22T14:11:01;6.17;83.97
70826;SHT31;58446;41.490;22.098;2023-12-22T14:13:26;6.17;83.96
70826;SHT31;58446;41.490;22.098;2023-12-22T14:15:52;6.16;84.04
70826;SHT31;58446;41.490;22.098;2023-12-22T14:18:18;6.19;84.14
70826;SHT31;58446;41.490;22.098;2023-12-22T14:20:44;6.14;84.37
70826;SHT31;58446;41.490;22.098;2023-12-22T14:23:11;6.12;84.23
70826;SHT31;58446;41.490;22.098;2023-12-22T14:25:42;6.14;84.23
70826;SHT31;58446;41.490;22.098;2023-12-22T14:28:07;6.12;84.19
70826;SHT31;58446;41.490;22.098;2023-12-22T14:30:33;6.19;84.29
70826;SHT31;58446;41.490;22.098;2023-12-22T14:32:59;6.23;84.03
70826;SHT31;58446;41.490;22.098;2023-12-22T14:35:25;6.23;83.80
70826;SHT31;58446;41.490;22.098;2023-12-22T14:37:50;6.22;83.72
70826;SHT31;58446;41.490;22.098;2023-12-22T14:40:16;6.22;83.71
70826;SHT31;58446;41.490;22.098;2023-12-22T14:42:42;6.22;83.94
70826;SHT31;58446;41.490;22.098;2023-12-22T14:45:07;6.17;84.79
70826;SHT31;58446;41.490;22.098;2023-12-22T14:47:33;6.22;84.48
70826;SHT31;58446;41.490;22.098;2023-12-22T14:50:00;6.20;84.55
70826;SHT31;58446;41.490;22.098;2023-12-22T14:52:30;6.26;84.16
70826;SHT31;58446;41.490;22.098;2023-12-22T14:54:57;6.22;84.70
70826;SHT31;58446;41.490;22.098;2023-12-22T14:57:23;6.24;84.47
70826;SHT31;58446;41.490;22.098;2023-12-22T14:59:49;6.26;83.54
70826;SHT31;58446;41.490;22.098;2023-12-22T15:02:14;6.27;83.50
70826;SHT31;58446;41.490;22.098;2023-12-22T15:04:40;6.30;83.39
70826;SHT31;58446;41.490;22.098;2023-12-22T15:07:05;6.29;83.37
70826;SHT31;58446;41.490;22.098;2023-12-22T15:09:31;6.24;83.74
70826;SHT31;58446;41.490;22.098;2023-12-22T15:11:57;6.26;84.07
70826;SHT31;58446;41.490;22.098;2023-12-22T15:14:23;6.29;84.37
70826;SHT31;58446;41.490;22.098;2023-12-22T15:16:48;6.27;84.10
70826;SHT31;58446;41.490;22.098;2023-12-22T15:19:17;6.30;84.08
70826;SHT31;58446;41.490;22.098;2023-12-22T15:21:43;6.32;83.68
70826;SHT31;58446;41.490;22.098;2023-12-22T15:24:09;6.27;84.06
70826;SHT31;58446;41.490;22.098;2023-12-22T15:26:35;6.29;83.45
70826;SHT31;58446;41.490;22.098;2023-12-22T15:29:02;6.29;83.42